sensor_id;sensor_type;location;lat;lon;timestamp;pressure;altitude;pressure_sealevel;temperature;humidity
5755;BME280;2902;42.130;24.732;2023-02-17T00:01:09;100490.09;;;4.17;69.97
5755;BME280;2902;42.130;24.732;2023-02-17T00:03:36;100486.25;;;4.21;69.66
5755;BME280;2902;42.130;24.732;2023-02-17T00:06:06;100484.59;;;4.20;68.79
5755;BME280;2902;42.130;24.732;2023-02-17T00:08:33;100490.09;;;4.17;68.91
5755;BME280;2902;42.130;24.732;2023-02-17T00:11:00;100490.63;;;4.11;69.17
5755;BME280;2902;42.130;24.732;2023-02-17T00:13:27;100474.88;;;4.11;69.83
5755;BME280;2902;42.130;24.732;2023-02-17T00:15:53;100475.84;;;4.10;69.73
5755;BME280;2902;42.130;24.732;2023-02-17T00:18:21;100474.88;;;4.11;69.81
5755;BME280;2902;42.130;24.732;2023-02-17T00:20:47;100468.47;;;4.04;69.60
5755;BME280;2902;42.130;24.732;2023-02-17T00:23:16;100470.94;;;4.06;69.73
5755;BME280;2902;42.130;24.732;2023-02-17T00:25:43;100466.66;;;4.05;70.21
5755;BME280;2902;42.130;24.732;2023-02-17T00:28:09;100468.47;;;4.04;70.24
5755;BME280;2902;42.130;24.732;2023-02-17T00:30:37;100461.53;;;4.03;70.54
5755;BME280;2902;42.130;24.732;2023-02-17T00:33:04;100460.13;;;3.99;71.09
5755;BME280;2902;42.130;24.732;2023-02-17T00:35:31;100465.66;;;3.96;71.13
5755;BME280;2902;42.130;24.732;2023-02-17T00:37:58;100462.59;;;3.91;71.14
5755;BME280;2902;42.130;24.732;2023-02-17T00:40:26;100465.22;;;3.91;70.89
5755;BME280;2902;42.130;24.732;2023-02-17T00:42:52;100465.91;;;3.93;70.98
5755;BME280;2902;42.130;24.732;2023-02-17T00:45:20;100440.94;;;3.78;70.17
5755;BME280;2902;42.130;24.732;2023-02-17T00:47:47;100448.72;;;3.89;70.88
5755;BME280;2902;42.130;24.732;2023-02-17T00:50:14;100441.81;;;3.88;71.28
5755;BME280;2902;42.130;24.732;2023-02-17T00:52:40;100416.81;;;3.64;71.76
5755;BME280;2902;42.130;24.732;2023-02-17T00:55:07;100443.63;;;3.67;71.37
5755;BME280;2902;42.130;24.732;2023-02-17T00:57:35;100432.56;;;3.64;72.39
5755;BME280;2902;42.130;24.732;2023-02-17T01:00:03;100431.72;;;3.63;72.30
5755;BME280;2902;42.130;24.732;2023-02-17T01:02:30;100435.19;;;3.64;71.32
5755;BME280;2902;42.130;24.732;2023-02-17T01:04:56;100435.81;;;3.56;72.33
5755;BME280;2902;42.130;24.732;2023-02-17T01:07:23;100423.97;;;3.41;72.04
5755;BME280;2902;42.130;24.732;2023-02-17T01:09:50;100423.78;;;3.33;72.71
5755;BME280;2902;42.130;24.732;2023-02-17T01:12:17;100422.81;;;3.34;72.38
5755;BME280;2902;42.130;24.732;2023-02-17T01:14:45;100419.88;;;3.28;73.19
5755;BME280;2902;42.130;24.732;2023-02-17T01:17:12;100425.13;;;3.28;72.23
5755;BME280;2902;42.130;24.732;2023-02-17T01:19:38;100418.63;;;3.11;73.81
5755;BME280;2902;42.130;24.732;2023-02-17T01:22:05;100412.94;;;3.06;72.74
5755;BME280;2902;42.130;24.732;2023-02-17T01:24:32;100411.91;;;2.98;74.27
5755;BME280;2902;42.130;24.732;2023-02-17T01:26:58;100400.56;;;2.97;73.93
5755;BME280;2902;42.130;24.732;2023-02-17T01:29:26;100408.47;;;2.86;73.86
5755;BME280;2902;42.130;24.732;2023-02-17T01:31:54;100405.41;;;2.81;74.94
5755;BME280;2902;42.130;24.732;2023-02-17T01:34:20;100398.25;;;2.83;75.19
5755;BME280;2902;42.130;24.732;2023-02-17T01:36:47;100387.50;;;2.86;73.80
5755;BME280;2902;42.130;24.732;2023-02-17T01:39:14;100385.66;;;2.66;75.04
5755;BME280;2902;42.130;24.732;2023-02-17T01:41:42;100384.50;;;2.59;75.37
5755;BME280;2902;42.130;24.732;2023-02-17T01:44:13;100386.66;;;2.54;75.38
5755;BME280;2902;42.130;24.732;2023-02-17T01:46:41;100384.75;;;2.56;76.03
5755;BME280;2902;42.130;24.732;2023-02-17T01:52:03;100374.00;;;2.59;76.35
5755;BME280;2902;42.130;24.732;2023-02-17T01:54:36;100377.94;;;2.65;76.77
5755;BME280;2902;42.130;24.732;2023-02-17T01:57:06;100387.59;;;2.64;75.89
5755;BME280;2902;42.130;24.732;2023-02-17T01:59:33;100374.69;;;2.72;76.23
5755;BME280;2902;42.130;24.732;2023-02-17T02:02:02;100368.97;;;2.67;75.14
5755;BME280;2902;42.130;24.732;2023-02-17T02:04:34;100365.38;;;2.79;75.68
5755;BME280;2902;42.130;24.732;2023-02-17T02:07:02;100370.09;;;2.85;75.02
5755;BME280;2902;42.130;24.732;2023-02-17T02:09:34;100374.38;;;2.86;74.12
5755;BME280;2902;42.130;24.732;2023-02-17T02:12:01;100376.31;;;2.84;74.87
5755;BME280;2902;42.130;24.732;2023-02-17T02:14:28;100355.34;;;2.73;74.63
5755;BME280;2902;42.130;24.732;2023-02-17T02:17:03;100370.66;;;2.89;75.22
5755;BME280;2902;42.130;24.732;2023-02-17T02:19:59;100361.53;;;2.83;74.10
5755;BME280;2902;42.130;24.732;2023-02-17T02:22:52;100359.63;;;2.74;74.54
5755;BME280;2902;42.130;24.732;2023-02-17T02:25:38;100366.44;;;2.77;74.80
5755;BME280;2902;42.130;24.732;2023-02-17T02:28:20;100370.53;;;2.70;75.19
5755;BME280;2902;42.130;24.732;2023-02-17T02:31:20;100364.09;;;2.63;74.99
5755;BME280;2902;42.130;24.732;2023-02-17T02:33:56;100361.84;;;2.58;75.82
5755;BME280;2902;42.130;24.732;2023-02-17T02:36:26;100343.78;;;2.44;75.07
5755;BME280;2902;42.130;24.732;2023-02-17T02:38:59;100370.09;;;2.54;75.70
5755;BME280;2902;42.130;24.732;2023-02-17T02:41:30;100359.50;;;2.44;75.37
5755;BME280;2902;42.130;24.732;2023-02-17T02:44:02;100368.34;;;2.43;76.06
5755;BME280;2902;42.130;24.732;2023-02-17T02:46:29;100370.56;;;2.48;76.81
5755;BME280;2902;42.130;24.732;2023-02-17T02:48:58;100380.00;;;2.50;74.98
5755;BME280;2902;42.130;24.732;2023-02-17T02:51:35;100372.63;;;2.44;74.88
5755;BME280;2902;42.130;24.732;2023-02-17T02:54:20;100368.13;;;2.24;75.63
5755;BME280;2902;42.130;24.732;2023-02-17T02:57:01;100370.28;;;2.19;76.06
5755;BME280;2902;42.130;24.732;2023-02-17T02:59:37;100371.72;;;2.12;76.60
5755;BME280;2902;42.130;24.732;2023-02-17T03:02:13;100366.13;;;2.17;76.74
5755;BME280;2902;42.130;24.732;2023-02-17T03:04:50;100364.81;;;2.22;76.11
5755;BME280;2902;42.130;24.732;2023-02-17T03:07:23;100359.56;;;2.22;75.87
5755;BME280;2902;42.130;24.732;2023-02-17T03:09:54;100358.00;;;2.31;75.61
5755;BME280;2902;42.130;24.732;2023-02-17T03:12:22;100352.16;;;2.27;75.00
5755;BME280;2902;42.130;24.732;2023-02-17T03:14:52;100362.66;;;2.27;76.14
5755;BME280;2902;42.130;24.732;2023-02-17T03:17:20;100349.78;;;2.35;75.44
5755;BME280;2902;42.130;24.732;2023-02-17T03:19:48;100353.94;;;2.38;74.99
5755;BME280;2902;42.130;24.732;2023-02-17T03:22:18;100357.13;;;2.41;75.11
5755;BME280;2902;42.130;24.732;2023-02-17T03:24:46;100356.88;;;2.44;75.47
5755;BME280;2902;42.130;24.732;2023-02-17T03:27:13;100356.19;;;2.42;75.35
5755;BME280;2902;42.130;24.732;2023-02-17T03:29:40;100352.63;;;2.43;75.01
5755;BME280;2902;42.130;24.732;2023-02-17T03:32:07;100355.00;;;2.46;74.57
5755;BME280;2902;42.130;24.732;2023-02-17T03:34:34;100360.81;;;2.50;75.05
5755;BME280;2902;42.130;24.732;2023-02-17T03:37:02;100351.53;;;2.46;74.54
5755;BME280;2902;42.130;24.732;2023-02-17T03:39:29;100356.66;;;2.47;74.18
5755;BME280;2902;42.130;24.732;2023-02-17T03:41:56;100357.25;;;2.40;74.72
5755;BME280;2902;42.130;24.732;2023-02-17T03:44:22;100369.78;;;2.25;75.86
5755;BME280;2902;42.130;24.732;2023-02-17T03:46:49;100373.13;;;2.27;76.10
5755;BME280;2902;42.130;24.732;2023-02-17T03:49:16;100370.41;;;2.29;76.88
5755;BME280;2902;42.130;24.732;2023-02-17T03:51:42;100373.59;;;2.32;76.72
5755;BME280;2902;42.130;24.732;2023-02-17T03:54:10;100376.00;;;2.24;76.46
5755;BME280;2902;42.130;24.732;2023-02-17T03:56:37;100376.00;;;2.24;76.71
5755;BME280;2902;42.130;24.732;2023-02-17T03:59:04;100363.00;;;2.23;76.73
5755;BME280;2902;42.130;24.732;2023-02-17T04:01:31;100364.56;;;2.25;76.58
5755;BME280;2902;42.130;24.732;2023-02-17T04:03:58;100367.09;;;2.16;77.33
5755;BME280;2902;42.130;24.732;2023-02-17T04:06:24;100361.72;;;2.17;77.88
5755;BME280;2902;42.130;24.732;2023-02-17T04:08:51;100360.03;;;2.16;76.98
5755;BME280;2902;42.130;24.732;2023-02-17T04:11:19;100368.38;;;2.21;77.04
5755;BME280;2902;42.130;24.732;2023-02-17T04:13:46;100369.22;;;2.11;76.60
5755;BME280;2902;42.130;24.732;2023-02-17T04:16:13;100365.78;;;2.10;77.83
5755;BME280;2902;42.130;24.732;2023-02-17T04:18:40;100364.72;;;2.13;77.72
5755;BME280;2902;42.130;24.732;2023-02-17T04:21:07;100356.13;;;2.11;76.65
5755;BME280;2902;42.130;24.732;2023-02-17T04:23:34;100361.03;;;2.04;76.33
5755;BME280;2902;42.130;24.732;2023-02-17T04:26:01;100352.69;;;1.99;77.10
5755;BME280;2902;42.130;24.732;2023-02-17T04:28:29;100367.38;;;1.91;77.03
5755;BME280;2902;42.130;24.732;2023-02-17T04:30:57;100377.47;;;1.84;78.31
5755;BME280;2902;42.130;24.732;2023-02-17T04:33:24;100365.09;;;1.86;78.25
5755;BME280;2902;42.130;24.732;2023-02-17T04:35:51;100364.25;;;1.86;77.15
5755;BME280;2902;42.130;24.732;2023-02-17T04:38:24;100364.13;;;1.76;78.50
5755;BME280;2902;42.130;24.732;2023-02-17T04:40:52;100366.38;;;1.70;78.60
5755;BME280;2902;42.130;24.732;2023-02-17T04:43:20;100360.56;;;1.66;79.02
5755;BME280;2902;42.130;24.732;2023-02-17T04:45:48;100350.69;;;1.70;79.06
5755;BME280;2902;42.130;24.732;2023-02-17T04:48:15;100368.31;;;1.68;78.32
5755;BME280;2902;42.130;24.732;2023-02-17T04:50:42;100355.81;;;1.60;78.60
5755;BME280;2902;42.130;24.732;2023-02-17T04:53:09;100332.44;;;1.35;78.88
5755;BME280;2902;42.130;24.732;2023-02-17T04:55:36;100341.28;;;1.45;79.79
5755;BME280;2902;42.130;24.732;2023-02-17T04:58:03;100344.00;;;1.44;79.09
5755;BME280;2902;42.130;24.732;2023-02-17T05:00:30;100348.19;;;1.46;79.19
5755;BME280;2902;42.130;24.732;2023-02-17T05:02:58;100341.72;;;1.39;78.21
5755;BME280;2902;42.130;24.732;2023-02-17T05:05:25;100340.06;;;1.38;78.71
5755;BME280;2902;42.130;24.732;2023-02-17T05:07:52;100345.78;;;1.32;80.25
5755;BME280;2902;42.130;24.732;2023-02-17T05:10:19;100344.63;;;1.36;79.46
5755;BME280;2902;42.130;24.732;2023-02-17T05:12:46;100357.22;;;1.42;79.23
5755;BME280;2902;42.130;24.732;2023-02-17T05:15:12;100354.16;;;1.48;78.05
5755;BME280;2902;42.130;24.732;2023-02-17T05:17:39;100345.81;;;1.54;78.50
5755;BME280;2902;42.130;24.732;2023-02-17T05:20:08;100348.31;;;1.56;77.22
5755;BME280;2902;42.130;24.732;2023-02-17T05:22:35;100357.00;;;1.45;78.08
5755;BME280;2902;42.130;24.732;2023-02-17T05:25:02;100353.19;;;1.49;79.27
5755;BME280;2902;42.130;24.732;2023-02-17T05:27:29;100347.34;;;1.57;78.45
5755;BME280;2902;42.130;24.732;2023-02-17T05:29:56;100329.13;;;1.55;77.86
5755;BME280;2902;42.130;24.732;2023-02-17T05:32:23;100351.53;;;1.70;78.03
5755;BME280;2902;42.130;24.732;2023-02-17T05:34:50;100366.50;;;1.79;78.43
5755;BME280;2902;42.130;24.732;2023-02-17T05:37:18;100353.88;;;1.84;77.74
5755;BME280;2902;42.130;24.732;2023-02-17T05:39:45;100360.31;;;1.91;77.65
5755;BME280;2902;42.130;24.732;2023-02-17T05:42:11;100363.41;;;1.96;78.90
5755;BME280;2902;42.130;24.732;2023-02-17T05:44:38;100359.81;;;2.08;77.55
5755;BME280;2902;42.130;24.732;2023-02-17T05:47:05;100359.81;;;2.19;77.81
5755;BME280;2902;42.130;24.732;2023-02-17T05:49:32;100369.31;;;2.31;76.49
5755;BME280;2902;42.130;24.732;2023-02-17T05:51:58;100355.06;;;2.56;77.46
5755;BME280;2902;42.130;24.732;2023-02-17T05:54:26;100356.31;;;2.72;75.45
5755;BME280;2902;42.130;24.732;2023-02-17T05:56:53;100365.59;;;2.76;75.34
5755;BME280;2902;42.130;24.732;2023-02-17T05:59:20;100374.50;;;2.85;76.24
5755;BME280;2902;42.130;24.732;2023-02-17T06:01:47;100368.84;;;3.00;75.16
5755;BME280;2902;42.130;24.732;2023-02-17T06:04:14;100379.66;;;3.07;74.55
5755;BME280;2902;42.130;24.732;2023-02-17T06:06:40;100378.38;;;3.22;75.31
5755;BME280;2902;42.130;24.732;2023-02-17T06:09:07;100386.50;;;3.39;72.45
5755;BME280;2902;42.130;24.732;2023-02-17T06:11:35;100395.00;;;3.52;71.62
5755;BME280;2902;42.130;24.732;2023-02-17T06:14:02;100385.22;;;3.54;71.57
5755;BME280;2902;42.130;24.732;2023-02-17T06:16:29;100387.84;;;3.54;71.94
5755;BME280;2902;42.130;24.732;2023-02-17T06:18:56;100386.63;;;3.58;71.95
5755;BME280;2902;42.130;24.732;2023-02-17T06:21:24;100391.09;;;3.67;71.54
5755;BME280;2902;42.130;24.732;2023-02-17T06:23:51;100397.19;;;3.68;72.55
5755;BME280;2902;42.130;24.732;2023-02-17T06:26:18;100401.41;;;3.80;72.47
5755;BME280;2902;42.130;24.732;2023-02-17T06:28:46;100404.22;;;3.97;71.58
5755;BME280;2902;42.130;24.732;2023-02-17T06:31:13;100394.06;;;4.13;70.29
5755;BME280;2902;42.130;24.732;2023-02-17T06:33:39;100397.97;;;4.28;69.90
5755;BME280;2902;42.130;24.732;2023-02-17T06:36:07;100388.31;;;4.38;70.17
5755;BME280;2902;42.130;24.732;2023-02-17T06:38:33;100396.34;;;4.46;69.79
5755;BME280;2902;42.130;24.732;2023-02-17T06:41:00;100398.03;;;4.47;69.50
5755;BME280;2902;42.130;24.732;2023-02-17T06:43:27;100411.88;;;4.49;69.77
5755;BME280;2902;42.130;24.732;2023-02-17T06:45:55;100393.09;;;4.63;69.33
5755;BME280;2902;42.130;24.732;2023-02-17T06:48:22;100394.88;;;4.91;69.25
5755;BME280;2902;42.130;24.732;2023-02-17T06:50:49;100396.97;;;5.16;68.28
5755;BME280;2902;42.130;24.732;2023-02-17T06:53:15;100395.69;;;5.39;68.13
5755;BME280;2902;42.130;24.732;2023-02-17T06:55:43;100402.63;;;5.40;67.13
5755;BME280;2902;42.130;24.732;2023-02-17T06:58:10;100394.72;;;5.40;66.96
5755;BME280;2902;42.130;24.732;2023-02-17T07:00:37;100397.06;;;5.43;66.74
5755;BME280;2902;42.130;24.732;2023-02-17T07:03:05;100405.69;;;5.45;67.28
5755;BME280;2902;42.130;24.732;2023-02-17T07:05:33;100413.53;;;5.64;67.73
5755;BME280;2902;42.130;24.732;2023-02-17T07:08:00;100398.50;;;5.94;66.82
5755;BME280;2902;42.130;24.732;2023-02-17T07:10:27;100400.03;;;6.23;64.95
5755;BME280;2902;42.130;24.732;2023-02-17T07:12:54;100417.09;;;6.29;64.02
5755;BME280;2902;42.130;24.732;2023-02-17T07:15:20;100406.50;;;6.38;64.67
5755;BME280;2902;42.130;24.732;2023-02-17T07:17:47;100407.81;;;6.69;66.22
5755;BME280;2902;42.130;24.732;2023-02-17T07:20:15;100403.09;;;7.25;60.52
5755;BME280;2902;42.130;24.732;2023-02-17T07:22:42;100411.94;;;7.85;60.52
5755;BME280;2902;42.130;24.732;2023-02-17T07:25:09;100408.63;;;8.16;56.56
5755;BME280;2902;42.130;24.732;2023-02-17T07:27:36;100411.53;;;8.31;55.92
5755;BME280;2902;42.130;24.732;2023-02-17T07:30:04;100413.19;;;8.32;54.77
5755;BME280;2902;42.130;24.732;2023-02-17T07:32:31;100415.81;;;8.24;54.88
5755;BME280;2902;42.130;24.732;2023-02-17T07:34:58;100410.97;;;8.45;53.95
5755;BME280;2902;42.130;24.732;2023-02-17T07:37:26;100408.19;;;8.70;53.02
5755;BME280;2902;42.130;24.732;2023-02-17T07:39:53;100413.19;;;8.73;53.50
5755;BME280;2902;42.130;24.732;2023-02-17T07:42:22;100413.41;;;8.96;51.95
5755;BME280;2902;42.130;24.732;2023-02-17T07:44:49;100417.41;;;9.24;51.49
5755;BME280;2902;42.130;24.732;2023-02-17T07:47:15;100416.25;;;9.58;49.68
5755;BME280;2902;42.130;24.732;2023-02-17T07:49:42;100417.41;;;9.64;49.11
5755;BME280;2902;42.130;24.732;2023-02-17T07:52:09;100419.69;;;9.67;48.40
5755;BME280;2902;42.130;24.732;2023-02-17T07:54:37;100417.03;;;9.75;48.85
5755;BME280;2902;42.130;24.732;2023-02-17T07:57:04;100420.69;;;9.82;47.47
5755;BME280;2902;42.130;24.732;2023-02-17T07:59:30;100421.69;;;9.73;48.12
5755;BME280;2902;42.130;24.732;2023-02-17T08:01:57;100418.22;;;9.56;47.92
5755;BME280;2902;42.130;24.732;2023-02-17T08:04:24;100413.06;;;9.63;49.29
5755;BME280;2902;42.130;24.732;2023-02-17T08:06:51;100414.53;;;9.89;48.37
5755;BME280;2902;42.130;24.732;2023-02-17T08:09:17;100414.00;;;10.18;47.21
5755;BME280;2902;42.130;24.732;2023-02-17T08:12:03;100409.59;;;10.41;46.83
5755;BME280;2902;42.130;24.732;2023-02-17T08:14:47;100415.19;;;10.54;45.71
5755;BME280;2902;42.130;24.732;2023-02-17T08:17:14;100414.88;;;10.79;45.60
5755;BME280;2902;42.130;24.732;2023-02-17T08:19:41;100413.59;;;10.98;44.91
5755;BME280;2902;42.130;24.732;2023-02-17T08:22:07;100413.25;;;11.24;43.92
5755;BME280;2902;42.130;24.732;2023-02-17T08:24:34;100413.97;;;11.40;44.42
5755;BME280;2902;42.130;24.732;2023-02-17T08:27:01;100403.78;;;11.66;43.80
5755;BME280;2902;42.130;24.732;2023-02-17T08:29:29;100416.38;;;12.01;43.14
5755;BME280;2902;42.130;24.732;2023-02-17T08:31:55;100408.03;;;12.33;42.75
5755;BME280;2902;42.130;24.732;2023-02-17T08:34:22;100407.09;;;12.55;41.40
5755;BME280;2902;42.130;24.732;2023-02-17T08:36:49;100413.81;;;12.51;41.07
5755;BME280;2902;42.130;24.732;2023-02-17T08:39:16;100410.19;;;12.73;40.80
5755;BME280;2902;42.130;24.732;2023-02-17T08:41:44;100412.81;;;13.02;40.03
5755;BME280;2902;42.130;24.732;2023-02-17T08:44:13;100404.38;;;13.20;39.43
5755;BME280;2902;42.130;24.732;2023-02-17T08:46:42;100402.34;;;13.43;40.17
5755;BME280;2902;42.130;24.732;2023-02-17T08:49:10;100393.66;;;13.62;39.52
5755;BME280;2902;42.130;24.732;2023-02-17T08:51:37;100394.06;;;13.86;38.62
5755;BME280;2902;42.130;24.732;2023-02-17T08:54:05;100394.94;;;14.00;38.68
5755;BME280;2902;42.130;24.732;2023-02-17T08:56:33;100392.09;;;14.29;37.63
5755;BME280;2902;42.130;24.732;2023-02-17T08:59:00;100393.13;;;14.34;37.71
5755;BME280;2902;42.130;24.732;2023-02-17T09:01:27;100392.41;;;14.60;37.56
5755;BME280;2902;42.130;24.732;2023-02-17T09:03:56;100399.91;;;14.77;37.36
5755;BME280;2902;42.130;24.732;2023-02-17T09:06:31;100381.44;;;15.08;36.75
5755;BME280;2902;42.130;24.732;2023-02-17T09:08:58;100392.63;;;15.44;36.00
5755;BME280;2902;42.130;24.732;2023-02-17T09:11:25;100360.50;;;15.57;35.49
5755;BME280;2902;42.130;24.732;2023-02-17T09:13:51;100381.09;;;15.70;30.24
5755;BME280;2902;42.130;24.732;2023-02-17T09:16:18;100381.09;;;15.76;29.46
5755;BME280;2902;42.130;24.732;2023-02-17T09:18:46;100377.78;;;15.94;28.62
5755;BME280;2902;42.130;24.732;2023-02-17T09:21:14;100373.25;;;15.81;27.93
5755;BME280;2902;42.130;24.732;2023-02-17T09:23:41;100374.47;;;15.85;27.96
5755;BME280;2902;42.130;24.732;2023-02-17T09:26:09;100381.28;;;15.88;28.03
5755;BME280;2902;42.130;24.732;2023-02-17T09:28:36;100371.81;;;15.79;27.65
5755;BME280;2902;42.130;24.732;2023-02-17T09:31:07;100365.84;;;15.64;27.41
5755;BME280;2902;42.130;24.732;2023-02-17T09:33:34;100374.31;;;15.74;27.70
5755;BME280;2902;42.130;24.732;2023-02-17T09:36:01;100367.50;;;15.71;27.62
5755;BME280;2902;42.130;24.732;2023-02-17T09:38:30;100373.66;;;15.72;27.76
5755;BME280;2902;42.130;24.732;2023-02-17T09:40:59;100362.34;;;15.70;27.34
5755;BME280;2902;42.130;24.732;2023-02-17T09:43:29;100361.50;;;15.96;27.21
5755;BME280;2902;42.130;24.732;2023-02-17T09:46:00;100359.19;;;16.06;27.36
5755;BME280;2902;42.130;24.732;2023-02-17T09:48:31;100356.94;;;16.02;26.79
5755;BME280;2902;42.130;24.732;2023-02-17T09:51:03;100350.97;;;16.01;27.00
5755;BME280;2902;42.130;24.732;2023-02-17T09:53:37;100343.34;;;15.91;27.79
5755;BME280;2902;42.130;24.732;2023-02-17T09:56:09;100342.88;;;16.14;27.73
5755;BME280;2902;42.130;24.732;2023-02-17T09:58:39;100342.59;;;16.35;26.85
5755;BME280;2902;42.130;24.732;2023-02-17T10:01:10;100338.84;;;16.55;26.75
5755;BME280;2902;42.130;24.732;2023-02-17T10:03:40;100323.47;;;16.69;26.67
5755;BME280;2902;42.130;24.732;2023-02-17T10:06:12;100326.19;;;17.00;26.47
5755;BME280;2902;42.130;24.732;2023-02-17T10:08:47;100329.53;;;17.20;25.88
5755;BME280;2902;42.130;24.732;2023-02-17T10:11:21;100318.44;;;17.41;25.75
5755;BME280;2902;42.130;24.732;2023-02-17T10:13:51;100319.88;;;17.68;25.54
5755;BME280;2902;42.130;24.732;2023-02-17T10:16:32;100306.44;;;18.04;25.58
5755;BME280;2902;42.130;24.732;2023-02-17T10:19:07;100316.44;;;18.15;24.60
5755;BME280;2902;42.130;24.732;2023-02-17T10:21:38;100306.59;;;18.27;24.79
5755;BME280;2902;42.130;24.732;2023-02-17T10:24:07;100307.19;;;18.29;24.52
5755;BME280;2902;42.130;24.732;2023-02-17T10:26:53;100304.06;;;18.50;24.42
5755;BME280;2902;42.130;24.732;2023-02-17T10:29:33;100314.63;;;18.63;24.11
5755;BME280;2902;42.130;24.732;2023-02-17T10:32:12;100305.16;;;18.60;24.26
5755;BME280;2902;42.130;24.732;2023-02-17T10:34:46;100298.97;;;18.71;24.21
5755;BME280;2902;42.130;24.732;2023-02-17T10:37:21;100290.53;;;18.68;24.50
5755;BME280;2902;42.130;24.732;2023-02-17T10:39:52;100288.94;;;18.78;24.21
5755;BME280;2902;42.130;24.732;2023-02-17T10:42:24;100292.47;;;18.79;23.74
5755;BME280;2902;42.130;24.732;2023-02-17T10:44:54;100287.59;;;18.40;23.83
5755;BME280;2902;42.130;24.732;2023-02-17T10:47:24;100286.22;;;18.67;24.16
5755;BME280;2902;42.130;24.732;2023-02-17T10:49:54;100276.88;;;18.81;23.69
5755;BME280;2902;42.130;24.732;2023-02-17T10:52:23;100273.78;;;19.07;23.50
5755;BME280;2902;42.130;24.732;2023-02-17T10:54:58;100271.16;;;18.89;23.26
5755;BME280;2902;42.130;24.732;2023-02-17T10:57:31;100228.41;;;18.69;23.09
5755;BME280;2902;42.130;24.732;2023-02-17T10:59:59;100250.47;;;18.89;23.20
5755;BME280;2902;42.130;24.732;2023-02-17T11:02:32;100249.63;;;18.89;23.40
5755;BME280;2902;42.130;24.732;2023-02-17T11:05:00;100245.34;;;19.22;23.06
5755;BME280;2902;42.130;24.732;2023-02-17T11:07:32;100247.56;;;19.14;23.02
5755;BME280;2902;42.130;24.732;2023-02-17T11:10:03;100239.34;;;19.09;22.82
5755;BME280;2902;42.130;24.732;2023-02-17T11:12:33;100241.38;;;19.36;22.41
5755;BME280;2902;42.130;24.732;2023-02-17T11:15:14;100241.59;;;19.69;22.00
5755;BME280;2902;42.130;24.732;2023-02-17T11:17:43;100247.81;;;19.47;22.07
5755;BME280;2902;42.130;24.732;2023-02-17T11:20:28;100235.03;;;19.65;22.00
5755;BME280;2902;42.130;24.732;2023-02-17T11:23:02;100221.25;;;19.50;22.01
5755;BME280;2902;42.130;24.732;2023-02-17T11:25:34;100222.22;;;19.84;22.40
5755;BME280;2902;42.130;24.732;2023-02-17T11:28:03;100224.81;;;19.79;22.20
5755;BME280;2902;42.130;24.732;2023-02-17T11:30:33;100208.72;;;19.56;22.42
5755;BME280;2902;42.130;24.732;2023-02-17T11:33:10;100213.09;;;19.85;21.75
5755;BME280;2902;42.130;24.732;2023-02-17T11:35:47;100203.72;;;19.76;21.91
5755;BME280;2902;42.130;24.732;2023-02-17T11:38:15;100203.53;;;19.66;21.80
5755;BME280;2902;42.130;24.732;2023-02-17T11:40:53;100202.31;;;19.85;21.78
5755;BME280;2902;42.130;24.732;2023-02-17T11:43:20;100189.47;;;20.03;21.79
5755;BME280;2902;42.130;24.732;2023-02-17T11:45:54;100207.88;;;20.18;21.96
5755;BME280;2902;42.130;24.732;2023-02-17T11:48:56;100204.41;;;20.34;20.85
5755;BME280;2902;42.130;24.732;2023-02-17T11:51:29;100205.63;;;20.43;20.53
5755;BME280;2902;42.130;24.732;2023-02-17T11:54:02;100211.72;;;20.50;19.91
5755;BME280;2902;42.130;24.732;2023-02-17T11:56:36;100203.94;;;20.53;20.11
5755;BME280;2902;42.130;24.732;2023-02-17T11:59:28;100195.19;;;20.63;19.85
5755;BME280;2902;42.130;24.732;2023-02-17T12:02:13;100202.91;;;20.71;20.03
5755;BME280;2902;42.130;24.732;2023-02-17T12:04:49;100194.22;;;20.86;20.83
5755;BME280;2902;42.130;24.732;2023-02-17T12:07:35;100189.50;;;20.93;20.26
5755;BME280;2902;42.130;24.732;2023-02-17T12:10:13;100193.72;;;20.72;19.93
5755;BME280;2902;42.130;24.732;2023-02-17T12:12:57;100186.69;;;20.71;20.09
5755;BME280;2902;42.130;24.732;2023-02-17T12:15:41;100182.94;;;20.72;20.07
5755;BME280;2902;42.130;24.732;2023-02-17T12:18:25;100184.75;;;20.83;20.53
5755;BME280;2902;42.130;24.732;2023-02-17T12:21:03;100183.59;;;20.96;19.81
5755;BME280;2902;42.130;24.732;2023-02-17T12:26:31;100166.88;;;20.82;19.95
5755;BME280;2902;42.130;24.732;2023-02-17T12:29:11;100175.81;;;20.83;19.73
5755;BME280;2902;42.130;24.732;2023-02-17T12:31:55;100167.28;;;20.91;19.39
5755;BME280;2902;42.130;24.732;2023-02-17T12:34:29;100168.03;;;20.86;19.70
5755;BME280;2902;42.130;24.732;2023-02-17T12:36:58;100160.00;;;20.75;19.70
5755;BME280;2902;42.130;24.732;2023-02-17T12:39:29;100161.31;;;20.72;19.82
5755;BME280;2902;42.130;24.732;2023-02-17T12:42:00;100155.44;;;20.75;19.48
5755;BME280;2902;42.130;24.732;2023-02-17T12:44:32;100147.09;;;20.60;19.21
5755;BME280;2902;42.130;24.732;2023-02-17T12:47:03;100142.81;;;20.47;19.89
5755;BME280;2902;42.130;24.732;2023-02-17T12:49:36;100133.91;;;20.47;19.81
5755;BME280;2902;42.130;24.732;2023-02-17T12:52:11;100134.22;;;20.34;20.00
5755;BME280;2902;42.130;24.732;2023-02-17T12:54:44;100141.66;;;20.27;20.06
5755;BME280;2902;42.130;24.732;2023-02-17T12:57:16;100139.97;;;20.09;19.31
5755;BME280;2902;42.130;24.732;2023-02-17T12:59:47;100104.09;;;19.81;19.86
5755;BME280;2902;42.130;24.732;2023-02-17T13:02:17;100139.34;;;20.19;19.66
5755;BME280;2902;42.130;24.732;2023-02-17T13:04:47;100150.75;;;20.09;20.14
5755;BME280;2902;42.130;24.732;2023-02-17T13:07:21;100134.44;;;20.16;21.42
5755;BME280;2902;42.130;24.732;2023-02-17T13:09:53;100157.69;;;20.33;19.48
5755;BME280;2902;42.130;24.732;2023-02-17T13:12:38;100161.47;;;20.32;19.96
5755;BME280;2902;42.130;24.732;2023-02-17T13:15:26;100155.22;;;20.32;20.12
5755;BME280;2902;42.130;24.732;2023-02-17T13:17:55;100150.31;;;20.29;20.13
5755;BME280;2902;42.130;24.732;2023-02-17T13:23:32;100159.94;;;20.25;20.16
5755;BME280;2902;42.130;24.732;2023-02-17T13:29:07;100160.03;;;20.02;20.24
5755;BME280;2902;42.130;24.732;2023-02-17T13:31:46;100149.72;;;19.99;20.91
5755;BME280;2902;42.130;24.732;2023-02-17T13:34:27;100160.03;;;20.02;20.57